»·PEaware :: JBU879 KLAS-KLGB

JBU879 :: KLAS-KLGB

FLIGHT INFORMATION

Flight Status: Arrived
Operator:
JetBlue Airways
More flights by this operator :: More flights under this callsign
Pilot: Sanjiv S. (4490)
Aircraft: AIRBUS A320
(A320)
More flights by this aircraft type
Origin: KLAS McCarran Intl
United States
Destination: KLGB Long Beach
United States
More flights between these airports :: More routes between these airports
Route: +BOACH6 HEC KAYOH6
File this flight plan on PilotEdge
Remarks:
Altitude:
(Current/Filed)
24,000ft
Speed:
(Current/Filed)
410kts
Departed: 26-Nov-16 10:04 AM
Arrived: 26-Nov-16 10:58 AM
Distance/Time
Traveled:
200nm/0:53
Distance/Time
To Go:
Arrived

Flight Plot

Page will automatically refresh every two minutes.

Flight plan parsing failed; only flown route is shown


Map Options




Map Legend


Flown Route
Filed Route
Departure Airport
Arrival Airport
Navaid (VOR, NDB)
Fix

Horizontal Profiles

Position Reports

Time Latitude Longitude Heading Altitude Ground
Speed
26-Nov-16 09:28 36.080614 -115.140634 124 2149ft 0kts
26-Nov-16 09:29 36.080614 -115.140634 124 2149ft 0kts
26-Nov-16 09:30 36.080614 -115.140634 124 2149ft 0kts
26-Nov-16 09:31 36.080614 -115.140634 124 2149ft 0kts
26-Nov-16 09:32 36.080614 -115.140634 124 2149ft 0kts
26-Nov-16 09:33 36.080614 -115.140634 124 2149ft 0kts
26-Nov-16 09:34 36.080614 -115.140634 124 2149ft 0kts
26-Nov-16 09:35 36.080614 -115.140634 124 2149ft 0kts
26-Nov-16 09:36 36.080614 -115.140634 124 2149ft 0kts
26-Nov-16 09:37 36.080614 -115.140634 124 2149ft 0kts
26-Nov-16 09:38 36.080614 -115.140634 124 2149ft 0kts
26-Nov-16 09:39 36.080614 -115.140634 124 2149ft 0kts
26-Nov-16 09:40 36.080614 -115.140634 124 2149ft 0kts
26-Nov-16 09:41 36.080614 -115.140634 124 2149ft 0kts
26-Nov-16 09:42 36.080614 -115.140634 124 2149ft 0kts
26-Nov-16 09:43 36.080614 -115.140634 124 2149ft 0kts
26-Nov-16 09:44 36.080614 -115.140634 124 2149ft 0kts
26-Nov-16 09:45 36.080614 -115.140634 124 2149ft 0kts
26-Nov-16 09:46 36.080614 -115.140634 124 2149ft 0kts
26-Nov-16 09:47 36.080909 -115.141157 124 2149ft 0kts
26-Nov-16 09:48 36.081236 -115.141283 196 2149ft 0kts
26-Nov-16 09:49 36.081236 -115.141283 196 2149ft 0kts
26-Nov-16 09:50 36.081236 -115.141283 196 2149ft 0kts
26-Nov-16 09:51 36.080320 -115.141580 182 2149ft 2kts
26-Nov-16 09:52 36.078289 -115.141020 99 2149ft 17kts
26-Nov-16 09:53 36.078233 -115.131595 90 2149ft 36kts
26-Nov-16 09:54 36.078024 -115.122334 128 2149ft 13kts
26-Nov-16 09:55 36.077432 -115.121458 139 2149ft 0kts
26-Nov-16 09:56 36.076884 -115.121256 176 2149ft 6kts
26-Nov-16 09:57 36.076406 -115.129279 268 2149ft 104kts
26-Nov-16 09:58 36.076916 -115.187104 271 2698ft 171kts
26-Nov-16 09:59 36.075022 -115.246997 235 3850ft 171kts
26-Nov-16 10:00 36.040453 -115.267712 195 5502ft 170kts
26-Nov-16 10:01 35.985946 -115.295300 200 6869ft 228kts
26-Nov-16 10:02 35.920400 -115.309215 182 8991ft 255kts
26-Nov-16 10:03 35.844793 -115.314704 175 10442ft 315kts
26-Nov-16 10:04 35.748979 -115.302554 175 12223ft 360kts
26-Nov-16 10:05 35.655104 -115.329526 223 14921ft 374kts
26-Nov-16 10:06 35.582402 -115.422750 224 17479ft 382kts
26-Nov-16 10:07 35.510256 -115.518569 225 19106ft 389kts
26-Nov-16 10:08 35.436706 -115.616264 225 20152ft 390kts
26-Nov-16 10:09 35.368044 -115.707962 225 21673ft 396kts
26-Nov-16 10:10 35.294868 -115.804803 225 23446ft 399kts
26-Nov-16 10:11 35.218915 -115.904829 226 24054ft 405kts
26-Nov-16 10:12 35.142757 -116.005031 226 24051ft 403kts
26-Nov-16 10:13 35.067030 -116.105711 226 24057ft 403kts
26-Nov-16 10:14 34.991509 -116.206035 226 24054ft 404kts
26-Nov-16 10:15 34.915873 -116.306209 226 24049ft 400kts
26-Nov-16 10:16 34.842913 -116.402349 226 24055ft 400kts
26-Nov-16 10:17 34.767604 -116.498776 224 24054ft 400kts
26-Nov-16 10:18 34.689327 -116.595079 225 24060ft 403kts
26-Nov-16 10:19 34.614136 -116.687445 224 23397ft 368kts
26-Nov-16 10:20 34.545725 -116.771499 224 21681ft 357kts
26-Nov-16 10:21 34.477915 -116.854384 223 19646ft 349kts
26-Nov-16 10:22 34.410311 -116.936804 222 17528ft 343kts
26-Nov-16 10:23 34.343983 -117.017470 222 15458ft 336kts
26-Nov-16 10:24 34.278836 -117.096161 218 13492ft 329kts
26-Nov-16 10:25 34.193382 -117.122904 188 12982ft 339kts
26-Nov-16 10:26 34.110101 -117.135840 188 12946ft 294kts
26-Nov-16 10:27 34.030073 -117.147750 187 10992ft 293kts
26-Nov-16 10:28 33.952344 -117.159214 187 10999ft 282kts
26-Nov-16 10:29 33.877362 -117.170276 187 11006ft 260kts
26-Nov-16 10:30 33.809242 -117.180459 190 11010ft 259kts
26-Nov-16 10:31 33.779170 -117.251648 260 10683ft 263kts
26-Nov-16 10:32 33.778192 -117.337392 263 8781ft 257kts
26-Nov-16 10:33 33.778787 -117.417984 264 8031ft 213kts
26-Nov-16 10:34 33.779316 -117.488326 264 8020ft 214kts
26-Nov-16 10:35 33.779824 -117.559955 264 8021ft 217kts
26-Nov-16 10:36 33.772947 -117.630051 252 6986ft 219kts
26-Nov-16 10:37 33.756676 -117.693120 251 5812ft 207kts
26-Nov-16 10:38 33.742606 -117.750721 273 4480ft 208kts
26-Nov-16 10:39 33.775298 -117.771698 20 4027ft 204kts
26-Nov-16 10:40 33.799261 -117.803982 231 4023ft 206kts
26-Nov-16 10:41 33.769724 -117.828630 212 4009ft 205kts
26-Nov-16 10:42 33.727393 -117.861485 211 4009ft 205kts
26-Nov-16 10:43 33.682912 -117.895948 211 4009ft 205kts
26-Nov-16 10:44 33.638414 -117.930559 215 4009ft 194kts
26-Nov-16 10:45 33.647458 -117.983166 311 3681ft 193kts
26-Nov-16 10:46 33.687489 -118.018778 329 2994ft 168kts
26-Nov-16 10:47 33.726058 -118.047156 328 2698ft 168kts
26-Nov-16 10:48 33.758773 -118.080213 313 1509ft 140kts
26-Nov-16 10:49 33.781940 -118.108993 316 673ft 132kts
26-Nov-16 10:50 33.804385 -118.135269 316 244ft 132kts
26-Nov-16 10:51 33.820869 -118.155068 318 68ft 22kts
26-Nov-16 10:52 33.821642 -118.154244 89 69ft 0kts
26-Nov-16 10:53 33.821643 -118.153380 90 69ft 7kts
26-Nov-16 10:54 33.821619 -118.150749 90 69ft 15kts
26-Nov-16 10:55 33.821261 -118.147032 168 68ft 14kts
26-Nov-16 10:56 33.819794 -118.146519 99 69ft 8kts
26-Nov-16 10:57 33.819776 -118.146154 88 68ft 0kts
26-Nov-16 10:58 33.819776 -118.146154 88 68ft 0kts

Navigation Log

Ident Type
Flight plan parsing failed, navigation log unavailable